createdAt,value
2023-10-02T00:00:10.512Z,101382.13
2023-10-02T00:05:32.218Z,101390.09
2023-10-02T00:10:53.936Z,101391.28
2023-10-02T00:16:15.724Z,101381.97
2023-10-02T00:21:37.447Z,101378.72
2023-10-02T00:26:59.936Z,101369.19
2023-10-02T00:32:21.751Z,101386.38
2023-10-02T00:37:44.815Z,101378.72
2023-10-02T00:43:06.682Z,101378.25
2023-10-02T00:48:29.918Z,101378.19
2023-10-02T00:53:52.144Z,101364.50
2023-10-02T00:59:13.957Z,101362.81
2023-10-02T01:04:35.845Z,101376.59
2023-10-02T01:09:57.679Z,101385.34
2023-10-02T01:15:22.625Z,101382.84
2023-10-02T01:20:50.394Z,101390.72
2023-10-02T01:26:12.259Z,101393.41
2023-10-02T01:31:34.984Z,101383.94
2023-10-02T01:36:56.776Z,101385.50
2023-10-02T01:42:18.552Z,101387.50
2023-10-02T01:47:40.380Z,101375.31
2023-10-02T01:53:05.390Z,101381.53
2023-10-02T01:58:29.011Z,101386.78
2023-10-02T02:03:52.014Z,101392.59
2023-10-02T02:09:13.872Z,101397.50
2023-10-02T02:14:39.980Z,101394.06
2023-10-02T02:20:01.792Z,101397.75
2023-10-02T02:25:23.557Z,101403.72
2023-10-02T02:30:45.267Z,101401.88
2023-10-02T02:36:07.366Z,101401.81
2023-10-02T02:41:29.219Z,101408.22
2023-10-02T02:46:50.952Z,101413.13
2023-10-02T02:52:12.662Z,101419.19
2023-10-02T02:57:35.556Z,101411.25
2023-10-02T03:03:00.849Z,101410.16
2023-10-02T03:08:22.621Z,101415.06
2023-10-02T03:13:44.407Z,101405.59
2023-10-02T03:19:06.238Z,101400.81
2023-10-02T03:24:27.955Z,101406.72
2023-10-02T03:29:49.676Z,101409.19
2023-10-02T03:35:11.516Z,101413.47
2023-10-02T03:40:33.288Z,101407.22
2023-10-02T03:45:59.675Z,101407.44
2023-10-02T03:51:21.415Z,101407.22
2023-10-02T03:56:43.108Z,101414.53
2023-10-02T04:02:05.266Z,101400.81
2023-10-02T04:07:27.011Z,101398.97
2023-10-02T04:12:48.734Z,101404.16
2023-10-02T04:18:10.429Z,101397.94
2023-10-02T04:23:32.140Z,101397.94
2023-10-02T04:28:55.807Z,101403.53
2023-10-02T04:34:17.706Z,101409.41
2023-10-02T04:39:39.477Z,101406.03
2023-10-02T04:45:01.235Z,101417.78
2023-10-02T04:50:23.122Z,101419.94
2023-10-02T04:55:45.488Z,101433.84
2023-10-02T05:01:07.675Z,101422.97
2023-10-02T05:06:30.196Z,101418.03
2023-10-02T05:11:53.077Z,101416.97
2023-10-02T05:17:15.240Z,101413.34
2023-10-02T05:22:37.107Z,101417.50
2023-10-02T05:27:58.851Z,101427.56
2023-10-02T05:33:20.581Z,101434.00
2023-10-02T05:38:42.285Z,101437.16
2023-10-02T05:44:04.262Z,101451.97
2023-10-02T05:49:26.062Z,101452.38
2023-10-02T05:54:49.337Z,101452.47
2023-10-02T06:00:11.674Z,101462.31
2023-10-02T06:05:33.390Z,101452.44
2023-10-02T06:10:55.129Z,101462.63
2023-10-02T06:16:16.874Z,101452.72
2023-10-02T06:21:38.648Z,101455.06
2023-10-02T06:27:00.465Z,101460.41
2023-10-02T06:32:22.233Z,101465.28
2023-10-02T06:37:44.042Z,101477.22
2023-10-02T06:43:05.816Z,101464.81
2023-10-02T06:48:27.554Z,101457.78
2023-10-02T06:53:49.289Z,101459.88
2023-10-02T06:59:11.051Z,101460.44
2023-10-02T07:04:32.992Z,101452.09
2023-10-02T07:09:57.032Z,101463.34
2023-10-02T07:15:18.762Z,101465.63
2023-10-02T07:20:43.684Z,101455.78
2023-10-02T07:26:06.534Z,101456.91
2023-10-02T07:31:28.384Z,101455.03
2023-10-02T07:36:50.127Z,101452.63
2023-10-02T07:42:11.975Z,101446.06
2023-10-02T07:47:33.854Z,101447.13
2023-10-02T07:52:55.721Z,101452.44
2023-10-02T07:58:17.502Z,101448.09
2023-10-02T08:03:40.558Z,101447.44
2023-10-02T08:09:05.225Z,101444.13
2023-10-02T08:14:26.942Z,101440.13
2023-10-02T08:19:53.439Z,101432.34
2023-10-02T08:25:16.028Z,101453.94
2023-10-02T08:30:38.229Z,101448.78
2023-10-02T08:36:01.051Z,101458.78
2023-10-02T08:41:22.856Z,101460.16
2023-10-02T08:46:45.207Z,101457.97
2023-10-02T08:52:11.663Z,101456.16
2023-10-02T08:57:58.157Z,101453.66
2023-10-02T09:03:32.176Z,101451.41
2023-10-02T09:08:54.664Z,101452.63
2023-10-02T09:14:16.420Z,101445.09
2023-10-02T09:19:38.222Z,101452.25
2023-10-02T09:25:12.755Z,101445.53
2023-10-02T09:30:34.459Z,101438.88
2023-10-02T09:36:29.906Z,101436.59
2023-10-02T09:41:39.669Z,101420.59
2023-10-02T09:47:01.640Z,101417.81
2023-10-02T09:52:29.624Z,101426.75
2023-10-02T09:57:55.084Z,101416.91
2023-10-02T10:03:22.939Z,101411.53
2023-10-02T10:09:07.856Z,101415.25
2023-10-02T10:14:29.525Z,101422.06
2023-10-02T10:19:57.097Z,101423.91
2023-10-02T10:25:21.878Z,101415.72
2023-10-02T10:30:50.276Z,101404.25
2023-10-02T10:36:34.766Z,101403.19
2023-10-02T10:42:01.589Z,101391.53
2023-10-02T10:47:38.829Z,101385.41
2023-10-02T10:53:01.520Z,101372.19
2023-10-02T10:58:31.257Z,101363.28
2023-10-02T11:04:03.027Z,101363.31
2023-10-02T11:09:24.962Z,101355.66
2023-10-02T11:14:46.692Z,101357.97
2023-10-02T11:20:09.058Z,101347.75
2023-10-02T11:25:30.995Z,101336.69
2023-10-02T11:30:52.843Z,101332.59
2023-10-02T11:36:14.578Z,101323.63
2023-10-02T11:41:40.320Z,101329.63
2023-10-02T11:47:02.150Z,101327.38
2023-10-02T11:52:24.206Z,101331.72
2023-10-02T11:57:46.973Z,101312.75
2023-10-02T12:03:08.804Z,101317.28
2023-10-02T12:08:30.659Z,101323.09
2023-10-02T12:13:53.239Z,101314.47
2023-10-02T12:19:14.987Z,101309.47
2023-10-02T12:24:38.247Z,101308.63
2023-10-02T12:30:00.403Z,101301.53
2023-10-02T12:35:22.178Z,101288.97
2023-10-02T12:40:43.986Z,101264.78
2023-10-02T12:46:05.733Z,101271.63
2023-10-02T12:51:29.768Z,101271.88
2023-10-02T12:56:51.507Z,101276.00
2023-10-02T13:02:13.187Z,101268.44
2023-10-02T13:07:35.006Z,101256.66
2023-10-02T13:12:56.746Z,101267.03
2023-10-02T13:18:18.814Z,101266.28
2023-10-02T13:23:41.077Z,101260.13
2023-10-02T13:29:03.047Z,101263.97
2023-10-02T13:34:24.918Z,101250.47
2023-10-02T13:39:46.706Z,101242.28
2023-10-02T13:45:08.926Z,101242.50
2023-10-02T13:50:33.293Z,101238.81
2023-10-02T13:55:55.163Z,101236.41
2023-10-02T14:01:21.769Z,101231.25
2023-10-02T14:06:43.607Z,101220.97
2023-10-02T14:12:05.674Z,101216.13
2023-10-02T14:17:27.497Z,101223.84
2023-10-02T14:22:49.301Z,101223.38
2023-10-02T14:28:11.002Z,101218.41
2023-10-02T14:33:35.254Z,101213.16
2023-10-02T14:38:57.465Z,101215.81
2023-10-02T14:44:19.273Z,101220.75
2023-10-02T14:49:41.181Z,101223.16
2023-10-02T14:55:02.940Z,101213.81
2023-10-02T15:00:25.839Z,101218.88
2023-10-02T15:05:47.581Z,101218.53
2023-10-02T15:11:09.447Z,101225.16
2023-10-02T15:16:31.274Z,101217.16
2023-10-02T15:21:53.034Z,101226.16
2023-10-02T15:27:14.768Z,101227.41
2023-10-02T15:32:36.512Z,101229.28
2023-10-02T15:37:58.973Z,101232.94
2023-10-02T15:43:20.734Z,101239.16
2023-10-02T15:48:42.453Z,101235.44
2023-10-02T15:54:04.411Z,101235.94
2023-10-02T15:59:26.151Z,101240.94
2023-10-02T16:04:51.822Z,101240.69
2023-10-02T16:10:14.366Z,101233.09
2023-10-02T16:15:36.546Z,101238.66
2023-10-02T16:20:58.638Z,101245.22
2023-10-02T16:26:24.110Z,101243.59
2023-10-02T16:31:45.847Z,101242.50
2023-10-02T16:37:07.664Z,101232.75
2023-10-02T16:42:29.441Z,101237.63
2023-10-02T16:47:51.249Z,101252.38
2023-10-02T16:53:13.003Z,101243.19
2023-10-02T16:58:35.432Z,101239.72
2023-10-02T17:03:57.309Z,101234.28
2023-10-02T17:09:19.319Z,101236.81
2023-10-02T17:14:41.048Z,101241.03
2023-10-02T17:20:02.919Z,101228.81
2023-10-02T17:25:24.812Z,101237.19
2023-10-02T17:30:46.515Z,101234.84
2023-10-02T17:36:08.243Z,101237.66
2023-10-02T17:41:30.023Z,101226.03
2023-10-02T17:46:51.799Z,101229.81
2023-10-02T17:52:13.557Z,101227.94
2023-10-02T17:57:35.431Z,101227.88
2023-10-02T18:02:57.488Z,101224.00
2023-10-02T18:08:19.406Z,101230.53
2023-10-02T18:13:41.160Z,101224.53
2023-10-02T18:19:03.054Z,101216.50
2023-10-02T18:24:25.057Z,101230.22
2023-10-02T18:29:46.896Z,101232.72
2023-10-02T18:35:09.307Z,101236.78
2023-10-02T18:40:31.092Z,101232.53
2023-10-02T18:45:52.860Z,101235.25
2023-10-02T18:51:18.198Z,101234.41
2023-10-02T18:56:39.996Z,101229.91
2023-10-02T19:02:01.786Z,101224.91
2023-10-02T19:07:23.533Z,101220.28
2023-10-02T19:12:45.230Z,101226.13
2023-10-02T19:18:07.210Z,101217.00
2023-10-02T19:23:29.043Z,101213.59
2023-10-02T19:28:51.170Z,101204.31
2023-10-02T19:34:13.077Z,101201.75
2023-10-02T19:39:34.788Z,101201.44
2023-10-02T19:44:56.486Z,101199.28
2023-10-02T19:50:18.339Z,101206.50
2023-10-02T19:55:40.319Z,101204.03
2023-10-02T20:01:02.904Z,101202.88
2023-10-02T20:06:25.029Z,101196.75
2023-10-02T20:11:46.819Z,101196.50
2023-10-02T20:17:08.589Z,101193.06
2023-10-02T20:22:30.341Z,101182.63
2023-10-02T20:27:52.483Z,101196.22
2023-10-02T20:33:14.282Z,101193.53
2023-10-02T20:38:36.357Z,101186.03
2023-10-02T20:43:58.126Z,101179.13
2023-10-02T20:49:20.431Z,101183.72
2023-10-02T20:54:42.460Z,101176.50
2023-10-02T21:00:04.658Z,101164.44
2023-10-02T21:05:27.864Z,101168.06
2023-10-02T21:10:52.574Z,101170.38
2023-10-02T21:16:15.533Z,101173.00
2023-10-02T21:21:37.386Z,101173.75
2023-10-02T21:26:59.161Z,101168.38
2023-10-02T21:32:20.907Z,101160.75
2023-10-02T21:37:43.057Z,101167.00
2023-10-02T21:43:04.879Z,101154.84
2023-10-02T21:48:26.618Z,101149.63
2023-10-02T21:53:48.371Z,101159.16
2023-10-02T21:59:10.143Z,101157.47
2023-10-02T22:04:31.859Z,101148.16
2023-10-02T22:09:53.591Z,101151.06
2023-10-02T22:15:15.353Z,101139.91
2023-10-02T22:20:41.772Z,101137.56
2023-10-02T22:26:03.525Z,101136.50
2023-10-02T22:31:25.337Z,101141.13
2023-10-02T22:36:47.057Z,101140.03
2023-10-02T22:42:08.797Z,101143.56
2023-10-02T22:47:30.634Z,101138.41
2023-10-02T22:52:52.416Z,101135.50
2023-10-02T22:58:14.134Z,101126.34
2023-10-02T23:03:37.235Z,101116.78
2023-10-02T23:08:59.071Z,101108.38
2023-10-02T23:14:20.909Z,101109.56
2023-10-02T23:19:42.676Z,101105.38
2023-10-02T23:25:04.768Z,101112.16
2023-10-02T23:30:26.520Z,101113.22
2023-10-02T23:35:48.354Z,101108.53
2023-10-02T23:41:10.390Z,101110.63
2023-10-02T23:46:32.129Z,101099.94
2023-10-02T23:51:53.917Z,101103.53
2023-10-02T23:57:15.638Z,101091.53
